sensor_id;sensor_type;location;lat;lon;timestamp;temperature;humidity
1297;DHT22;641;48.492;9.184;2022-11-06T10:23:12;7.20;99.90
1297;DHT22;641;48.492;9.184;2022-11-06T11:00:18;6.10;99.90
1297;DHT22;641;48.492;9.184;2022-11-06T11:02:58;6.10;99.90
1297;DHT22;641;48.492;9.184;2022-11-06T11:05:26;6.00;99.90
1297;DHT22;641;48.492;9.184;2022-11-06T11:07:56;6.30;99.90
1297;DHT22;641;48.492;9.184;2022-11-06T11:12:56;6.00;99.90
1297;DHT22;641;48.492;9.184;2022-11-06T11:15:25;6.00;99.90
1297;DHT22;641;48.492;9.184;2022-11-06T11:20:46;5.70;99.90
1297;DHT22;641;48.492;9.184;2022-11-06T11:23:23;6.10;99.90
1297;DHT22;641;48.492;9.184;2022-11-06T11:26:20;6.20;99.90
1297;DHT22;641;48.492;9.184;2022-11-06T11:45:30;7.80;99.90
1297;DHT22;641;48.492;9.184;2022-11-06T11:48:46;7.50;99.90
1297;DHT22;641;48.492;9.184;2022-11-06T11:52:05;7.60;99.90
1297;DHT22;641;48.492;9.184;2022-11-06T11:55:12;8.00;99.90
1297;DHT22;641;48.492;9.184;2022-11-06T11:58:01;8.40;99.90
1297;DHT22;641;48.492;9.184;2022-11-06T12:00:27;8.60;99.90
1297;DHT22;641;48.492;9.184;2022-11-06T12:03:18;8.60;99.90
1297;DHT22;641;48.492;9.184;2022-11-06T12:06:23;8.20;99.90
1297;DHT22;641;48.492;9.184;2022-11-06T12:09:06;8.60;99.90
1297;DHT22;641;48.492;9.184;2022-11-06T12:11:51;8.90;99.90
1297;DHT22;641;48.492;9.184;2022-11-06T12:17:10;8.60;99.90
1297;DHT22;641;48.492;9.184;2022-11-06T12:19:41;8.60;99.90
1297;DHT22;641;48.492;9.184;2022-11-06T12:22:15;8.70;99.90
1297;DHT22;641;48.492;9.184;2022-11-06T12:27:46;8.60;99.90
1297;DHT22;641;48.492;9.184;2022-11-06T12:30:17;8.90;99.90
1297;DHT22;641;48.492;9.184;2022-11-06T12:32:55;8.90;99.90
1297;DHT22;641;48.492;9.184;2022-11-06T12:35:40;9.10;99.90
1297;DHT22;641;48.492;9.184;2022-11-06T12:43:38;10.00;99.90
1297;DHT22;641;48.492;9.184;2022-11-06T12:46:44;10.30;99.90
1297;DHT22;641;48.492;9.184;2022-11-06T12:52:47;9.70;99.90
1297;DHT22;641;48.492;9.184;2022-11-06T12:55:25;9.60;99.90
1297;DHT22;641;48.492;9.184;2022-11-06T12:58:10;9.90;99.90
1297;DHT22;641;48.492;9.184;2022-11-06T13:01:14;10.00;99.90
1297;DHT22;641;48.492;9.184;2022-11-06T13:48:45;11.20;99.90
1297;DHT22;641;48.492;9.184;2022-11-06T13:55:21;11.40;99.90
1297;DHT22;641;48.492;9.184;2022-11-06T13:58:24;11.60;99.90
1297;DHT22;641;48.492;9.184;2022-11-06T14:07:38;11.80;99.90
1297;DHT22;641;48.492;9.184;2022-11-06T14:42:42;10.80;99.90
1297;DHT22;641;48.492;9.184;2022-11-06T14:45:16;10.70;99.90
1297;DHT22;641;48.492;9.184;2022-11-06T14:47:57;10.60;99.90
1297;DHT22;641;48.492;9.184;2022-11-06T14:50:47;10.60;99.90
1297;DHT22;641;48.492;9.184;2022-11-06T14:53:24;10.40;99.90
1297;DHT22;641;48.492;9.184;2022-11-06T14:59:38;10.70;99.90
1297;DHT22;641;48.492;9.184;2022-11-06T15:02:48;10.80;99.90
1297;DHT22;641;48.492;9.184;2022-11-06T15:05:24;11.10;99.90
1297;DHT22;641;48.492;9.184;2022-11-06T15:08:05;11.00;99.90
1297;DHT22;641;48.492;9.184;2022-11-06T15:13:40;11.10;99.90
1297;DHT22;641;48.492;9.184;2022-11-06T15:16:10;10.90;99.90
1297;DHT22;641;48.492;9.184;2022-11-06T15:18:43;10.80;99.90
1297;DHT22;641;48.492;9.184;2022-11-06T15:21:33;10.80;99.90
1297;DHT22;641;48.492;9.184;2022-11-06T15:24:16;10.80;99.90
1297;DHT22;641;48.492;9.184;2022-11-06T15:26:53;10.70;99.90
1297;DHT22;641;48.492;9.184;2022-11-06T15:29:45;10.60;99.90
1297;DHT22;641;48.492;9.184;2022-11-06T15:32:43;10.50;99.90
1297;DHT22;641;48.492;9.184;2022-11-06T15:35:34;10.80;99.90
1297;DHT22;641;48.492;9.184;2022-11-06T15:38:13;10.80;99.90
1297;DHT22;641;48.492;9.184;2022-11-06T15:40:43;11.00;99.90
1297;DHT22;641;48.492;9.184;2022-11-06T15:43:32;10.70;99.90
1297;DHT22;641;48.492;9.184;2022-11-06T15:46:06;10.70;99.90
1297;DHT22;641;48.492;9.184;2022-11-06T15:49:04;10.50;99.90
1297;DHT22;641;48.492;9.184;2022-11-06T15:51:30;10.60;99.90
1297;DHT22;641;48.492;9.184;2022-11-06T15:53:59;10.30;99.90
1297;DHT22;641;48.492;9.184;2022-11-06T15:56:31;10.20;99.90
1297;DHT22;641;48.492;9.184;2022-11-06T15:59:11;10.60;99.90
1297;DHT22;641;48.492;9.184;2022-11-06T16:01:55;10.20;99.90
1297;DHT22;641;48.492;9.184;2022-11-06T16:04:37;10.50;99.90
1297;DHT22;641;48.492;9.184;2022-11-06T16:07:23;10.40;99.90
1297;DHT22;641;48.492;9.184;2022-11-06T16:10:02;10.40;99.90
1297;DHT22;641;48.492;9.184;2022-11-06T16:12:29;10.50;99.90
1297;DHT22;641;48.492;9.184;2022-11-06T16:15:24;10.40;99.90
1297;DHT22;641;48.492;9.184;2022-11-06T16:18:07;10.60;99.90
1297;DHT22;641;48.492;9.184;2022-11-06T16:20:44;10.50;99.90
1297;DHT22;641;48.492;9.184;2022-11-06T16:23:13;10.60;99.90
1297;DHT22;641;48.492;9.184;2022-11-06T16:25:50;10.50;99.90
1297;DHT22;641;48.492;9.184;2022-11-06T16:28:33;10.70;99.90
1297;DHT22;641;48.492;9.184;2022-11-06T16:35:06;10.50;99.90
1297;DHT22;641;48.492;9.184;2022-11-06T16:37:41;10.90;99.90
1297;DHT22;641;48.492;9.184;2022-11-06T16:40:48;10.60;99.90
1297;DHT22;641;48.492;9.184;2022-11-06T16:43:25;10.70;99.90
1297;DHT22;641;48.492;9.184;2022-11-06T16:46:03;10.70;99.90
1297;DHT22;641;48.492;9.184;2022-11-06T16:48:42;10.70;99.90
1297;DHT22;641;48.492;9.184;2022-11-06T16:51:12;10.90;99.90
1297;DHT22;641;48.492;9.184;2022-11-06T16:53:55;10.90;99.90
1297;DHT22;641;48.492;9.184;2022-11-06T16:56:27;10.80;99.90
1297;DHT22;641;48.492;9.184;2022-11-06T16:59:07;11.10;99.90
1297;DHT22;641;48.492;9.184;2022-11-06T17:01:39;11.10;99.90
1297;DHT22;641;48.492;9.184;2022-11-06T17:04:08;11.10;99.90
1297;DHT22;641;48.492;9.184;2022-11-06T17:06:36;11.00;99.90
1297;DHT22;641;48.492;9.184;2022-11-06T17:09:26;10.80;99.90
1297;DHT22;641;48.492;9.184;2022-11-06T17:11:53;11.00;99.90
1297;DHT22;641;48.492;9.184;2022-11-06T17:14:20;11.00;99.90
1297;DHT22;641;48.492;9.184;2022-11-06T17:16:51;10.90;99.90
1297;DHT22;641;48.492;9.184;2022-11-06T17:19:18;11.00;99.90
1297;DHT22;641;48.492;9.184;2022-11-06T17:21:45;10.90;99.90
1297;DHT22;641;48.492;9.184;2022-11-06T17:24:11;11.30;99.90
1297;DHT22;641;48.492;9.184;2022-11-06T17:26:46;11.30;99.90
1297;DHT22;641;48.492;9.184;2022-11-06T17:29:12;11.10;99.90
1297;DHT22;641;48.492;9.184;2022-11-06T17:31:38;11.20;99.90
1297;DHT22;641;48.492;9.184;2022-11-06T17:34:03;11.50;99.90
1297;DHT22;641;48.492;9.184;2022-11-06T17:36:30;11.40;99.90
1297;DHT22;641;48.492;9.184;2022-11-06T17:38:57;11.30;99.90
1297;DHT22;641;48.492;9.184;2022-11-06T17:41:24;11.30;99.90
1297;DHT22;641;48.492;9.184;2022-11-06T17:44:09;11.20;99.90
1297;DHT22;641;48.492;9.184;2022-11-06T17:46:40;10.90;99.90
1297;DHT22;641;48.492;9.184;2022-11-06T17:49:07;11.00;99.90
1297;DHT22;641;48.492;9.184;2022-11-06T17:51:34;11.00;99.90
1297;DHT22;641;48.492;9.184;2022-11-06T17:54:21;11.00;99.90
1297;DHT22;641;48.492;9.184;2022-11-06T17:56:48;10.70;99.90
1297;DHT22;641;48.492;9.184;2022-11-06T17:59:18;10.80;99.90
1297;DHT22;641;48.492;9.184;2022-11-06T18:01:44;10.50;99.90
1297;DHT22;641;48.492;9.184;2022-11-06T18:04:12;10.60;99.90
1297;DHT22;641;48.492;9.184;2022-11-06T18:06:38;10.60;99.90
1297;DHT22;641;48.492;9.184;2022-11-06T18:09:06;10.40;99.90
1297;DHT22;641;48.492;9.184;2022-11-06T18:11:32;10.40;99.90
1297;DHT22;641;48.492;9.184;2022-11-06T18:13:58;10.20;99.90
1297;DHT22;641;48.492;9.184;2022-11-06T18:16:30;10.50;99.90
1297;DHT22;641;48.492;9.184;2022-11-06T18:18:59;10.40;99.90
1297;DHT22;641;48.492;9.184;2022-11-06T18:21:24;10.20;99.90
1297;DHT22;641;48.492;9.184;2022-11-06T18:23:50;10.10;99.90
1297;DHT22;641;48.492;9.184;2022-11-06T18:26:17;10.50;99.90
1297;DHT22;641;48.492;9.184;2022-11-06T18:28:43;10.50;99.90
1297;DHT22;641;48.492;9.184;2022-11-06T19:27:05;11.10;99.90
1297;DHT22;641;48.492;9.184;2022-11-06T19:52:59;10.80;99.90
1297;DHT22;641;48.492;9.184;2022-11-06T19:55:25;10.60;99.90
1297;DHT22;641;48.492;9.184;2022-11-06T19:57:50;10.60;99.90
1297;DHT22;641;48.492;9.184;2022-11-06T20:00:16;10.80;99.90
1297;DHT22;641;48.492;9.184;2022-11-06T20:02:42;10.50;99.90
1297;DHT22;641;48.492;9.184;2022-11-06T20:05:07;10.50;99.90
1297;DHT22;641;48.492;9.184;2022-11-06T20:07:35;10.80;99.90
1297;DHT22;641;48.492;9.184;2022-11-06T20:10:02;10.60;99.90
1297;DHT22;641;48.492;9.184;2022-11-06T20:12:28;10.70;99.90
1297;DHT22;641;48.492;9.184;2022-11-06T20:14:55;10.70;99.90
1297;DHT22;641;48.492;9.184;2022-11-06T20:17:23;10.90;99.90
1297;DHT22;641;48.492;9.184;2022-11-06T20:19:49;10.90;99.90
1297;DHT22;641;48.492;9.184;2022-11-06T20:22:15;10.90;99.90
1297;DHT22;641;48.492;9.184;2022-11-06T20:24:44;10.80;99.90
1297;DHT22;641;48.492;9.184;2022-11-06T20:27:13;10.90;99.90
